sensor_id;sensor_type;location;lat;lon;timestamp;P1;durP1;ratioP1;P2;durP2;ratioP2
15608;SDS011;64278;45.642;13.756;2023-02-02T00:01:10;15.90;;;14.48;;
15608;SDS011;64278;45.642;13.756;2023-02-02T00:03:35;15.80;;;14.40;;
15608;SDS011;64278;45.642;13.756;2023-02-02T00:06:02;15.43;;;14.13;;
15608;SDS011;64278;45.642;13.756;2023-02-02T00:08:28;15.63;;;14.23;;
15608;SDS011;64278;45.642;13.756;2023-02-02T00:10:54;15.00;;;13.65;;
15608;SDS011;64278;45.642;13.756;2023-02-02T00:13:19;14.48;;;13.15;;
15608;SDS011;64278;45.642;13.756;2023-02-02T00:15:45;14.63;;;13.43;;
15608;SDS011;64278;45.642;13.756;2023-02-02T00:18:11;15.05;;;13.75;;
15608;SDS011;64278;45.642;13.756;2023-02-02T00:20:36;14.45;;;13.15;;
15608;SDS011;64278;45.642;13.756;2023-02-02T00:23:02;13.57;;;12.40;;
15608;SDS011;64278;45.642;13.756;2023-02-02T00:25:28;15.70;;;14.30;;
15608;SDS011;64278;45.642;13.756;2023-02-02T00:27:54;14.60;;;13.23;;
15608;SDS011;64278;45.642;13.756;2023-02-02T00:30:21;13.52;;;12.32;;
15608;SDS011;64278;45.642;13.756;2023-02-02T00:32:46;14.15;;;12.95;;
15608;SDS011;64278;45.642;13.756;2023-02-02T00:35:13;15.18;;;13.88;;
15608;SDS011;64278;45.642;13.756;2023-02-02T00:37:39;14.98;;;13.57;;
15608;SDS011;64278;45.642;13.756;2023-02-02T00:40:06;14.32;;;12.93;;
15608;SDS011;64278;45.642;13.756;2023-02-02T00:42:32;14.25;;;12.95;;
15608;SDS011;64278;45.642;13.756;2023-02-02T00:44:58;13.27;;;12.07;;
15608;SDS011;64278;45.642;13.756;2023-02-02T00:47:46;15.18;;;13.75;;
15608;SDS011;64278;45.642;13.756;2023-02-02T00:50:14;14.25;;;12.82;;
15608;SDS011;64278;45.642;13.756;2023-02-02T00:52:44;14.25;;;13.05;;
15608;SDS011;64278;45.642;13.756;2023-02-02T00:55:11;12.73;;;11.55;;
15608;SDS011;64278;45.642;13.756;2023-02-02T00:57:37;14.15;;;12.85;;
15608;SDS011;64278;45.642;13.756;2023-02-02T01:00:04;13.60;;;12.40;;
15608;SDS011;64278;45.642;13.756;2023-02-02T01:02:31;14.77;;;13.38;;
15608;SDS011;64278;45.642;13.756;2023-02-02T01:04:57;15.80;;;14.30;;
15608;SDS011;64278;45.642;13.756;2023-02-02T01:07:23;13.93;;;12.73;;
15608;SDS011;64278;45.642;13.756;2023-02-02T01:09:49;14.02;;;12.82;;
15608;SDS011;64278;45.642;13.756;2023-02-02T01:12:14;13.80;;;12.40;;
15608;SDS011;64278;45.642;13.756;2023-02-02T01:14:40;13.63;;;12.43;;
15608;SDS011;64278;45.642;13.756;2023-02-02T01:17:06;12.55;;;11.48;;
15608;SDS011;64278;45.642;13.756;2023-02-02T01:19:31;14.05;;;12.85;;
15608;SDS011;64278;45.642;13.756;2023-02-02T01:21:57;14.02;;;12.73;;
15608;SDS011;64278;45.642;13.756;2023-02-02T01:24:23;13.73;;;12.52;;
15608;SDS011;64278;45.642;13.756;2023-02-02T01:26:49;15.63;;;14.07;;
15608;SDS011;64278;45.642;13.756;2023-02-02T01:29:15;14.95;;;13.57;;
15608;SDS011;64278;45.642;13.756;2023-02-02T01:31:40;15.00;;;13.60;;
15608;SDS011;64278;45.642;13.756;2023-02-02T01:34:07;13.30;;;12.10;;
15608;SDS011;64278;45.642;13.756;2023-02-02T01:36:32;13.40;;;12.30;;
15608;SDS011;64278;45.642;13.756;2023-02-02T01:38:58;13.48;;;12.32;;
15608;SDS011;64278;45.642;13.756;2023-02-02T01:41:25;15.23;;;13.77;;
15608;SDS011;64278;45.642;13.756;2023-02-02T01:43:58;12.93;;;11.90;;
15608;SDS011;64278;45.642;13.756;2023-02-02T01:46:30;15.07;;;13.70;;
15608;SDS011;64278;45.642;13.756;2023-02-02T01:54:34;14.18;;;12.85;;
15608;SDS011;64278;45.642;13.756;2023-02-02T01:57:33;14.00;;;12.68;;
15608;SDS011;64278;45.642;13.756;2023-02-02T02:00:10;14.02;;;12.63;;
15608;SDS011;64278;45.642;13.756;2023-02-02T02:02:38;15.30;;;13.80;;
15608;SDS011;64278;45.642;13.756;2023-02-02T02:05:05;14.07;;;12.77;;
15608;SDS011;64278;45.642;13.756;2023-02-02T02:07:32;15.98;;;14.55;;
15608;SDS011;64278;45.642;13.756;2023-02-02T02:09:57;14.88;;;13.50;;
15608;SDS011;64278;45.642;13.756;2023-02-02T02:12:23;13.82;;;12.63;;
15608;SDS011;64278;45.642;13.756;2023-02-02T02:14:49;13.63;;;12.52;;
15608;SDS011;64278;45.642;13.756;2023-02-02T02:29:19;14.73;;;13.43;;
15608;SDS011;64278;45.642;13.756;2023-02-02T02:34:51;14.80;;;13.50;;
15608;SDS011;64278;45.642;13.756;2023-02-02T02:37:28;13.75;;;12.55;;
15608;SDS011;64278;45.642;13.756;2023-02-02T02:43:09;13.73;;;12.55;;
15608;SDS011;64278;45.642;13.756;2023-02-02T02:45:42;14.75;;;13.25;;
15608;SDS011;64278;45.642;13.756;2023-02-02T02:48:08;14.27;;;13.07;;
15608;SDS011;64278;45.642;13.756;2023-02-02T02:50:35;12.70;;;11.50;;
15608;SDS011;64278;45.642;13.756;2023-02-02T02:53:05;13.70;;;12.50;;
15608;SDS011;64278;45.642;13.756;2023-02-02T02:55:38;13.30;;;12.20;;
15608;SDS011;64278;45.642;13.756;2023-02-02T02:58:14;14.15;;;12.95;;
15608;SDS011;64278;45.642;13.756;2023-02-02T03:01:48;13.20;;;12.10;;
15608;SDS011;64278;45.642;13.756;2023-02-02T03:09:11;13.65;;;12.35;;
15608;SDS011;64278;45.642;13.756;2023-02-02T03:11:42;12.65;;;11.55;;
15608;SDS011;64278;45.642;13.756;2023-02-02T03:14:08;12.65;;;11.55;;
15608;SDS011;64278;45.642;13.756;2023-02-02T03:16:36;12.77;;;11.60;;
15608;SDS011;64278;45.642;13.756;2023-02-02T03:19:03;12.63;;;11.57;;
15608;SDS011;64278;45.642;13.756;2023-02-02T03:21:30;14.23;;;13.02;;
15608;SDS011;64278;45.642;13.756;2023-02-02T03:23:56;12.57;;;11.45;;
15608;SDS011;64278;45.642;13.756;2023-02-02T03:26:22;13.13;;;12.02;;
15608;SDS011;64278;45.642;13.756;2023-02-02T03:28:48;13.20;;;11.93;;
15608;SDS011;64278;45.642;13.756;2023-02-02T03:31:15;12.05;;;10.95;;
15608;SDS011;64278;45.642;13.756;2023-02-02T03:33:40;11.98;;;10.88;;
15608;SDS011;64278;45.642;13.756;2023-02-02T03:36:06;11.65;;;10.65;;
15608;SDS011;64278;45.642;13.756;2023-02-02T03:38:32;11.50;;;10.45;;
15608;SDS011;64278;45.642;13.756;2023-02-02T03:40:59;11.55;;;10.48;;
15608;SDS011;64278;45.642;13.756;2023-02-02T03:43:24;12.38;;;11.38;;
15608;SDS011;64278;45.642;13.756;2023-02-02T03:45:57;12.52;;;11.43;;
15608;SDS011;64278;45.642;13.756;2023-02-02T03:48:24;12.32;;;11.30;;
15608;SDS011;64278;45.642;13.756;2023-02-02T03:50:50;11.27;;;10.27;;
15608;SDS011;64278;45.642;13.756;2023-02-02T03:53:16;12.70;;;11.52;;
15608;SDS011;64278;45.642;13.756;2023-02-02T03:55:42;12.00;;;10.90;;
15608;SDS011;64278;45.642;13.756;2023-02-02T03:58:07;11.70;;;10.63;;
15608;SDS011;64278;45.642;13.756;2023-02-02T04:00:33;11.10;;;10.10;;
15608;SDS011;64278;45.642;13.756;2023-02-02T04:02:59;11.82;;;10.82;;
15608;SDS011;64278;45.642;13.756;2023-02-02T04:05:24;12.68;;;11.57;;
15608;SDS011;64278;45.642;13.756;2023-02-02T04:07:50;11.70;;;10.70;;
15608;SDS011;64278;45.642;13.756;2023-02-02T04:10:16;11.90;;;10.80;;
15608;SDS011;64278;45.642;13.756;2023-02-02T04:12:42;11.73;;;10.77;;
15608;SDS011;64278;45.642;13.756;2023-02-02T04:15:08;12.27;;;11.18;;
15608;SDS011;64278;45.642;13.756;2023-02-02T04:17:34;11.30;;;10.20;;
15608;SDS011;64278;45.642;13.756;2023-02-02T04:20:00;11.15;;;10.15;;
15608;SDS011;64278;45.642;13.756;2023-02-02T04:22:26;10.98;;;10.02;;
15608;SDS011;64278;45.642;13.756;2023-02-02T04:24:52;11.45;;;10.45;;
15608;SDS011;64278;45.642;13.756;2023-02-02T04:27:18;10.63;;;9.73;;
15608;SDS011;64278;45.642;13.756;2023-02-02T04:29:44;11.85;;;10.80;;
15608;SDS011;64278;45.642;13.756;2023-02-02T04:32:09;11.52;;;10.52;;
15608;SDS011;64278;45.642;13.756;2023-02-02T04:34:35;11.23;;;10.23;;
15608;SDS011;64278;45.642;13.756;2023-02-02T04:37:00;11.68;;;10.68;;
15608;SDS011;64278;45.642;13.756;2023-02-02T04:39:26;12.38;;;11.38;;
15608;SDS011;64278;45.642;13.756;2023-02-02T04:41:52;11.57;;;10.57;;
15608;SDS011;64278;45.642;13.756;2023-02-02T04:44:17;10.75;;;9.80;;
15608;SDS011;64278;45.642;13.756;2023-02-02T04:46:43;10.65;;;9.73;;
15608;SDS011;64278;45.642;13.756;2023-02-02T04:49:09;11.13;;;10.23;;
15608;SDS011;64278;45.642;13.756;2023-02-02T04:51:36;11.02;;;10.13;;
15608;SDS011;64278;45.642;13.756;2023-02-02T04:54:03;11.70;;;10.70;;
15608;SDS011;64278;45.642;13.756;2023-02-02T04:56:30;11.40;;;10.35;;
15608;SDS011;64278;45.642;13.756;2023-02-02T04:58:55;11.00;;;10.05;;
15608;SDS011;64278;45.642;13.756;2023-02-02T05:01:21;10.88;;;9.88;;
15608;SDS011;64278;45.642;13.756;2023-02-02T05:03:47;12.05;;;10.98;;
15608;SDS011;64278;45.642;13.756;2023-02-02T05:06:14;10.90;;;10.00;;
15608;SDS011;64278;45.642;13.756;2023-02-02T05:08:40;10.98;;;9.93;;
15608;SDS011;64278;45.642;13.756;2023-02-02T05:11:10;10.77;;;9.88;;
15608;SDS011;64278;45.642;13.756;2023-02-02T05:13:37;11.10;;;10.10;;
15608;SDS011;64278;45.642;13.756;2023-02-02T05:16:03;10.15;;;9.23;;
15608;SDS011;64278;45.642;13.756;2023-02-02T05:18:30;10.82;;;9.90;;
15608;SDS011;64278;45.642;13.756;2023-02-02T05:20:57;9.80;;;9.00;;
15608;SDS011;64278;45.642;13.756;2023-02-02T05:23:24;10.20;;;9.23;;
15608;SDS011;64278;45.642;13.756;2023-02-02T05:25:53;10.20;;;9.30;;
15608;SDS011;64278;45.642;13.756;2023-02-02T05:28:19;10.75;;;9.75;;
15608;SDS011;64278;45.642;13.756;2023-02-02T05:30:46;10.90;;;9.90;;
15608;SDS011;64278;45.642;13.756;2023-02-02T05:33:12;10.93;;;10.02;;
15608;SDS011;64278;45.642;13.756;2023-02-02T05:35:37;10.15;;;9.27;;
15608;SDS011;64278;45.642;13.756;2023-02-02T05:38:03;9.80;;;9.00;;
15608;SDS011;64278;45.642;13.756;2023-02-02T05:40:29;10.30;;;9.40;;
15608;SDS011;64278;45.642;13.756;2023-02-02T05:42:54;10.85;;;9.85;;
15608;SDS011;64278;45.642;13.756;2023-02-02T05:45:20;11.07;;;10.05;;
15608;SDS011;64278;45.642;13.756;2023-02-02T05:47:46;11.02;;;10.02;;
15608;SDS011;64278;45.642;13.756;2023-02-02T05:50:12;11.68;;;10.63;;
15608;SDS011;64278;45.642;13.756;2023-02-02T05:52:38;10.52;;;9.55;;
15608;SDS011;64278;45.642;13.756;2023-02-02T05:55:05;10.73;;;9.77;;
15608;SDS011;64278;45.642;13.756;2023-02-02T05:57:32;9.93;;;9.07;;
15608;SDS011;64278;45.642;13.756;2023-02-02T05:59:57;11.38;;;10.38;;
15608;SDS011;64278;45.642;13.756;2023-02-02T06:02:23;10.77;;;9.88;;
15608;SDS011;64278;45.642;13.756;2023-02-02T06:04:49;11.90;;;10.88;;
15608;SDS011;64278;45.642;13.756;2023-02-02T06:07:14;11.40;;;10.20;;
15608;SDS011;64278;45.642;13.756;2023-02-02T06:09:40;11.10;;;10.20;;
15608;SDS011;64278;45.642;13.756;2023-02-02T06:12:05;10.20;;;9.38;;
15608;SDS011;64278;45.642;13.756;2023-02-02T06:14:31;12.25;;;11.13;;
15608;SDS011;64278;45.642;13.756;2023-02-02T06:16:57;12.50;;;11.40;;
15608;SDS011;64278;45.642;13.756;2023-02-02T06:19:22;10.43;;;9.63;;
15608;SDS011;64278;45.642;13.756;2023-02-02T06:21:48;10.25;;;9.35;;
15608;SDS011;64278;45.642;13.756;2023-02-02T06:24:14;29.73;;;26.65;;
15608;SDS011;64278;45.642;13.756;2023-02-02T06:26:40;32.13;;;28.75;;
15608;SDS011;64278;45.642;13.756;2023-02-02T06:29:05;23.38;;;20.95;;
15608;SDS011;64278;45.642;13.756;2023-02-02T06:31:31;19.60;;;17.65;;
15608;SDS011;64278;45.642;13.756;2023-02-02T06:33:57;17.42;;;15.68;;
15608;SDS011;64278;45.642;13.756;2023-02-02T06:36:24;17.15;;;15.55;;
15608;SDS011;64278;45.642;13.756;2023-02-02T06:38:51;18.30;;;16.50;;
15608;SDS011;64278;45.642;13.756;2023-02-02T06:41:18;15.57;;;14.07;;
15608;SDS011;64278;45.642;13.756;2023-02-02T06:43:44;16.20;;;14.55;;
15608;SDS011;64278;45.642;13.756;2023-02-02T06:46:11;15.45;;;14.02;;
15608;SDS011;64278;45.642;13.756;2023-02-02T06:48:37;15.27;;;13.88;;
15608;SDS011;64278;45.642;13.756;2023-02-02T06:51:02;15.30;;;13.80;;
15608;SDS011;64278;45.642;13.756;2023-02-02T06:53:29;15.68;;;12.45;;
15608;SDS011;64278;45.642;13.756;2023-02-02T06:55:56;12.85;;;11.55;;
15608;SDS011;64278;45.642;13.756;2023-02-02T06:58:24;12.77;;;11.68;;
15608;SDS011;64278;45.642;13.756;2023-02-02T07:00:50;12.50;;;11.35;;
15608;SDS011;64278;45.642;13.756;2023-02-02T07:03:16;11.95;;;10.75;;
15608;SDS011;64278;45.642;13.756;2023-02-02T07:05:42;12.70;;;11.50;;
15608;SDS011;64278;45.642;13.756;2023-02-02T07:08:08;12.70;;;11.60;;
15608;SDS011;64278;45.642;13.756;2023-02-02T07:10:35;12.48;;;11.38;;
15608;SDS011;64278;45.642;13.756;2023-02-02T07:13:02;13.07;;;11.77;;
15608;SDS011;64278;45.642;13.756;2023-02-02T07:15:28;13.27;;;12.00;;
15608;SDS011;64278;45.642;13.756;2023-02-02T07:17:53;12.43;;;11.32;;
15608;SDS011;64278;45.642;13.756;2023-02-02T07:20:19;12.02;;;10.98;;
15608;SDS011;64278;45.642;13.756;2023-02-02T07:22:45;11.82;;;10.75;;
15608;SDS011;64278;45.642;13.756;2023-02-02T07:25:10;11.18;;;10.25;;
15608;SDS011;64278;45.642;13.756;2023-02-02T07:27:36;11.30;;;10.40;;
15608;SDS011;64278;45.642;13.756;2023-02-02T07:30:02;12.68;;;11.52;;
15608;SDS011;64278;45.642;13.756;2023-02-02T07:32:28;12.10;;;11.10;;
15608;SDS011;64278;45.642;13.756;2023-02-02T07:34:53;11.32;;;10.43;;
15608;SDS011;64278;45.642;13.756;2023-02-02T07:37:19;11.05;;;10.15;;
15608;SDS011;64278;45.642;13.756;2023-02-02T07:39:45;10.85;;;9.85;;
15608;SDS011;64278;45.642;13.756;2023-02-02T07:42:11;12.15;;;10.95;;
15608;SDS011;64278;45.642;13.756;2023-02-02T07:44:37;10.98;;;9.98;;
15608;SDS011;64278;45.642;13.756;2023-02-02T07:47:02;11.95;;;10.85;;
15608;SDS011;64278;45.642;13.756;2023-02-02T07:49:28;11.65;;;10.55;;
15608;SDS011;64278;45.642;13.756;2023-02-02T07:51:54;10.90;;;9.93;;
15608;SDS011;64278;45.642;13.756;2023-02-02T07:54:19;10.73;;;9.82;;
15608;SDS011;64278;45.642;13.756;2023-02-02T07:56:45;12.65;;;11.45;;
15608;SDS011;64278;45.642;13.756;2023-02-02T07:59:11;10.98;;;10.02;;
15608;SDS011;64278;45.642;13.756;2023-02-02T08:01:36;12.18;;;11.07;;
15608;SDS011;64278;45.642;13.756;2023-02-02T08:04:02;11.68;;;10.60;;
15608;SDS011;64278;45.642;13.756;2023-02-02T08:06:29;10.80;;;9.80;;
15608;SDS011;64278;45.642;13.756;2023-02-02T08:11:23;11.30;;;10.20;;
15608;SDS011;64278;45.642;13.756;2023-02-02T08:13:50;13.18;;;12.07;;
15608;SDS011;64278;45.642;13.756;2023-02-02T08:16:19;13.00;;;11.70;;
15608;SDS011;64278;45.642;13.756;2023-02-02T08:18:45;12.45;;;11.25;;
15608;SDS011;64278;45.642;13.756;2023-02-02T08:21:11;12.30;;;11.13;;
15608;SDS011;64278;45.642;13.756;2023-02-02T08:23:39;12.15;;;11.15;;
15608;SDS011;64278;45.642;13.756;2023-02-02T08:26:12;11.95;;;10.70;;
15608;SDS011;64278;45.642;13.756;2023-02-02T08:28:43;12.15;;;11.02;;
15608;SDS011;64278;45.642;13.756;2023-02-02T08:31:11;12.15;;;11.05;;
15608;SDS011;64278;45.642;13.756;2023-02-02T08:33:40;13.00;;;11.70;;
15608;SDS011;64278;45.642;13.756;2023-02-02T08:36:18;13.13;;;11.90;;
15608;SDS011;64278;45.642;13.756;2023-02-02T08:38:46;11.90;;;10.70;;
15608;SDS011;64278;45.642;13.756;2023-02-02T08:41:13;12.65;;;11.50;;
15608;SDS011;64278;45.642;13.756;2023-02-02T08:43:40;12.68;;;11.48;;
15608;SDS011;64278;45.642;13.756;2023-02-02T08:46:07;12.45;;;11.05;;
15608;SDS011;64278;45.642;13.756;2023-02-02T08:48:35;12.30;;;11.02;;
15608;SDS011;64278;45.642;13.756;2023-02-02T08:51:01;13.00;;;11.75;;
15608;SDS011;64278;45.642;13.756;2023-02-02T08:53:28;15.30;;;13.95;;
15608;SDS011;64278;45.642;13.756;2023-02-02T08:58:27;16.45;;;14.93;;
15608;SDS011;64278;45.642;13.756;2023-02-02T09:00:54;15.27;;;13.88;;
15608;SDS011;64278;45.642;13.756;2023-02-02T09:03:27;17.60;;;15.90;;
15608;SDS011;64278;45.642;13.756;2023-02-02T09:05:53;19.25;;;17.45;;
15608;SDS011;64278;45.642;13.756;2023-02-02T09:08:18;20.20;;;18.15;;
15608;SDS011;64278;45.642;13.756;2023-02-02T09:10:44;22.38;;;20.08;;
15608;SDS011;64278;45.642;13.756;2023-02-02T09:13:09;22.38;;;20.17;;
15608;SDS011;64278;45.642;13.756;2023-02-02T09:15:35;23.27;;;20.80;;
15608;SDS011;64278;45.642;13.756;2023-02-02T09:18:01;23.35;;;20.85;;
15608;SDS011;64278;45.642;13.756;2023-02-02T09:20:26;23.13;;;20.85;;
15608;SDS011;64278;45.642;13.756;2023-02-02T09:22:54;23.05;;;20.35;;
15608;SDS011;64278;45.642;13.756;2023-02-02T09:25:21;22.65;;;20.35;;
15608;SDS011;64278;45.642;13.756;2023-02-02T09:27:48;21.38;;;19.35;;
15608;SDS011;64278;45.642;13.756;2023-02-02T09:30:14;21.52;;;19.23;;
15608;SDS011;64278;45.642;13.756;2023-02-02T09:32:40;21.60;;;19.42;;
15608;SDS011;64278;45.642;13.756;2023-02-02T09:35:06;20.98;;;18.92;;
15608;SDS011;64278;45.642;13.756;2023-02-02T09:37:34;20.90;;;18.88;;
15608;SDS011;64278;45.642;13.756;2023-02-02T09:40:00;21.92;;;19.83;;
15608;SDS011;64278;45.642;13.756;2023-02-02T09:45:16;20.15;;;17.25;;
15608;SDS011;64278;45.642;13.756;2023-02-02T09:48:19;19.15;;;17.25;;
15608;SDS011;64278;45.642;13.756;2023-02-02T09:50:51;20.65;;;18.45;;
15608;SDS011;64278;45.642;13.756;2023-02-02T09:53:37;17.42;;;15.52;;
15608;SDS011;64278;45.642;13.756;2023-02-02T09:56:14;20.67;;;18.58;;
15608;SDS011;64278;45.642;13.756;2023-02-02T09:59:02;20.60;;;18.55;;
15608;SDS011;64278;45.642;13.756;2023-02-02T10:01:33;24.98;;;22.55;;
15608;SDS011;64278;45.642;13.756;2023-02-02T10:06:37;28.92;;;25.98;;
15608;SDS011;64278;45.642;13.756;2023-02-02T10:11:40;25.83;;;23.27;;
15608;SDS011;64278;45.642;13.756;2023-02-02T10:14:21;28.30;;;25.33;;
15608;SDS011;64278;45.642;13.756;2023-02-02T10:16:59;26.15;;;23.23;;
15608;SDS011;64278;45.642;13.756;2023-02-02T10:19:35;29.85;;;26.67;;
15608;SDS011;64278;45.642;13.756;2023-02-02T10:22:03;27.52;;;24.70;;
15608;SDS011;64278;45.642;13.756;2023-02-02T10:24:36;21.40;;;19.33;;
15608;SDS011;64278;45.642;13.756;2023-02-02T10:27:05;22.20;;;20.02;;
15608;SDS011;64278;45.642;13.756;2023-02-02T10:41:27;17.83;;;16.15;;
15608;SDS011;64278;45.642;13.756;2023-02-02T10:46:45;24.13;;;21.73;;
15608;SDS011;64278;45.642;13.756;2023-02-02T10:52:03;20.85;;;18.73;;
15608;SDS011;64278;45.642;13.756;2023-02-02T10:54:50;22.40;;;18.98;;
15608;SDS011;64278;45.642;13.756;2023-02-02T10:57:37;19.58;;;17.67;;
15608;SDS011;64278;45.642;13.756;2023-02-02T11:00:20;23.58;;;21.20;;
15608;SDS011;64278;45.642;13.756;2023-02-02T11:02:49;23.35;;;21.05;;
15608;SDS011;64278;45.642;13.756;2023-02-02T11:05:20;20.08;;;18.08;;
15608;SDS011;64278;45.642;13.756;2023-02-02T11:08:11;20.20;;;18.15;;
15608;SDS011;64278;45.642;13.756;2023-02-02T11:10:46;18.98;;;17.02;;
15608;SDS011;64278;45.642;13.756;2023-02-02T11:13:18;18.02;;;16.15;;
15608;SDS011;64278;45.642;13.756;2023-02-02T11:15:59;18.13;;;16.33;;
15608;SDS011;64278;45.642;13.756;2023-02-02T11:18:42;16.27;;;14.77;;
15608;SDS011;64278;45.642;13.756;2023-02-02T11:21:22;16.38;;;14.73;;
15608;SDS011;64278;45.642;13.756;2023-02-02T11:26:40;15.55;;;13.95;;
15608;SDS011;64278;45.642;13.756;2023-02-02T11:29:15;14.88;;;13.43;;
15608;SDS011;64278;45.642;13.756;2023-02-02T11:35:17;14.00;;;12.70;;
15608;SDS011;64278;45.642;13.756;2023-02-02T11:40:55;13.35;;;12.13;;
15608;SDS011;64278;45.642;13.756;2023-02-02T11:46:19;14.50;;;13.20;;
15608;SDS011;64278;45.642;13.756;2023-02-02T11:48:58;13.05;;;11.85;;
15608;SDS011;64278;45.642;13.756;2023-02-02T11:51:32;14.05;;;12.32;;
15608;SDS011;64278;45.642;13.756;2023-02-02T11:54:06;12.82;;;11.57;;
15608;SDS011;64278;45.642;13.756;2023-02-02T11:56:40;13.13;;;11.93;;
15608;SDS011;64278;45.642;13.756;2023-02-02T11:59:12;12.38;;;11.05;;
15608;SDS011;64278;45.642;13.756;2023-02-02T12:04:52;13.98;;;12.63;;
15608;SDS011;64278;45.642;13.756;2023-02-02T12:07:28;14.68;;;12.90;;
15608;SDS011;64278;45.642;13.756;2023-02-02T12:10:05;17.27;;;12.88;;
15608;SDS011;64278;45.642;13.756;2023-02-02T12:12:41;13.00;;;11.65;;
15608;SDS011;64278;45.642;13.756;2023-02-02T12:21:07;14.32;;;12.02;;
15608;SDS011;64278;45.642;13.756;2023-02-02T12:31:48;12.43;;;11.30;;
15608;SDS011;64278;45.642;13.756;2023-02-02T12:48:39;14.95;;;13.45;;
15608;SDS011;64278;45.642;13.756;2023-02-02T12:59:55;14.05;;;12.52;;
15608;SDS011;64278;45.642;13.756;2023-02-02T13:08:15;13.02;;;11.85;;
15608;SDS011;64278;45.642;13.756;2023-02-02T13:10:51;13.50;;;12.30;;
15608;SDS011;64278;45.642;13.756;2023-02-02T13:13:22;14.77;;;13.38;;
15608;SDS011;64278;45.642;13.756;2023-02-02T13:15:54;13.63;;;12.23;;
15608;SDS011;64278;45.642;13.756;2023-02-02T13:18:31;13.77;;;12.45;;
15608;SDS011;64278;45.642;13.756;2023-02-02T13:21:06;14.13;;;12.93;;
15608;SDS011;64278;45.642;13.756;2023-02-02T13:23:38;13.40;;;12.10;;
15608;SDS011;64278;45.642;13.756;2023-02-02T13:29:05;13.00;;;11.73;;
15608;SDS011;64278;45.642;13.756;2023-02-02T13:34:43;12.55;;;11.43;;
15608;SDS011;64278;45.642;13.756;2023-02-02T13:38:15;12.60;;;11.35;;
15608;SDS011;64278;45.642;13.756;2023-02-02T13:40:37;13.60;;;12.20;;
15608;SDS011;64278;45.642;13.756;2023-02-02T14:02:50;14.10;;;12.68;;
15608;SDS011;64278;45.642;13.756;2023-02-02T14:05:29;14.30;;;12.90;;
15608;SDS011;64278;45.642;13.756;2023-02-02T14:08:03;11.80;;;10.70;;
15608;SDS011;64278;45.642;13.756;2023-02-02T14:10:34;12.63;;;11.52;;
15608;SDS011;64278;45.642;13.756;2023-02-02T14:15:57;12.70;;;11.30;;
15608;SDS011;64278;45.642;13.756;2023-02-02T14:21:13;13.18;;;11.88;;
15608;SDS011;64278;45.642;13.756;2023-02-02T14:26:57;12.70;;;11.60;;
15608;SDS011;64278;45.642;13.756;2023-02-02T14:48:43;11.82;;;10.63;;
15608;SDS011;64278;45.642;13.756;2023-02-02T14:51:13;12.95;;;11.80;;
15608;SDS011;64278;45.642;13.756;2023-02-02T14:53:48;11.75;;;10.73;;
15608;SDS011;64278;45.642;13.756;2023-02-02T14:56:18;12.82;;;11.52;;
15608;SDS011;64278;45.642;13.756;2023-02-02T14:58:52;12.68;;;11.45;;
15608;SDS011;64278;45.642;13.756;2023-02-02T15:01:22;12.20;;;11.10;;
15608;SDS011;64278;45.642;13.756;2023-02-02T15:14:31;12.40;;;11.38;;
15608;SDS011;64278;45.642;13.756;2023-02-02T15:17:21;11.98;;;10.77;;
15608;SDS011;64278;45.642;13.756;2023-02-02T15:30:42;11.75;;;10.75;;
15608;SDS011;64278;45.642;13.756;2023-02-02T15:33:21;11.48;;;10.48;;
15608;SDS011;64278;45.642;13.756;2023-02-02T15:35:47;11.68;;;10.63;;
15608;SDS011;64278;45.642;13.756;2023-02-02T15:38:14;11.77;;;10.73;;
15608;SDS011;64278;45.642;13.756;2023-02-02T15:40:41;12.35;;;11.25;;
15608;SDS011;64278;45.642;13.756;2023-02-02T15:43:09;11.68;;;10.68;;
15608;SDS011;64278;45.642;13.756;2023-02-02T15:45:47;12.88;;;11.77;;
15608;SDS011;64278;45.642;13.756;2023-02-02T15:51:13;12.57;;;11.27;;
15608;SDS011;64278;45.642;13.756;2023-02-02T15:59:13;13.75;;;12.52;;
15608;SDS011;64278;45.642;13.756;2023-02-02T16:01:49;13.38;;;12.18;;
15608;SDS011;64278;45.642;13.756;2023-02-02T16:06:47;13.57;;;11.93;;
15608;SDS011;64278;45.642;13.756;2023-02-02T16:09:24;13.27;;;11.98;;
15608;SDS011;64278;45.642;13.756;2023-02-02T16:11:52;14.45;;;11.98;;
15608;SDS011;64278;45.642;13.756;2023-02-02T16:14:18;12.90;;;11.73;;
15608;SDS011;64278;45.642;13.756;2023-02-02T16:16:45;13.93;;;12.60;;
15608;SDS011;64278;45.642;13.756;2023-02-02T16:19:20;12.98;;;11.77;;
15608;SDS011;64278;45.642;13.756;2023-02-02T16:24:19;13.32;;;12.02;;
15608;SDS011;64278;45.642;13.756;2023-02-02T16:26:50;13.18;;;11.90;;
15608;SDS011;64278;45.642;13.756;2023-02-02T16:29:18;13.18;;;11.98;;
15608;SDS011;64278;45.642;13.756;2023-02-02T16:31:45;13.15;;;11.93;;
15608;SDS011;64278;45.642;13.756;2023-02-02T16:34:20;12.77;;;11.50;;
15608;SDS011;64278;45.642;13.756;2023-02-02T16:37:13;13.55;;;12.35;;
15608;SDS011;64278;45.642;13.756;2023-02-02T16:39:41;13.07;;;11.88;;
15608;SDS011;64278;45.642;13.756;2023-02-02T16:42:26;12.50;;;11.27;;
15608;SDS011;64278;45.642;13.756;2023-02-02T16:44:56;13.90;;;12.70;;
15608;SDS011;64278;45.642;13.756;2023-02-02T16:49:49;12.73;;;11.57;;
15608;SDS011;64278;45.642;13.756;2023-02-02T16:52:19;12.75;;;11.55;;
15608;SDS011;64278;45.642;13.756;2023-02-02T16:54:50;11.45;;;10.45;;
15608;SDS011;64278;45.642;13.756;2023-02-02T16:57:20;12.85;;;11.73;;
15608;SDS011;64278;45.642;13.756;2023-02-02T16:59:51;12.65;;;11.45;;
15608;SDS011;64278;45.642;13.756;2023-02-02T17:02:21;12.68;;;11.57;;
15608;SDS011;64278;45.642;13.756;2023-02-02T17:04:54;12.70;;;11.52;;
15608;SDS011;64278;45.642;13.756;2023-02-02T17:07:24;12.50;;;11.43;;
15608;SDS011;64278;45.642;13.756;2023-02-02T17:10:08;13.63;;;12.18;;
15608;SDS011;64278;45.642;13.756;2023-02-02T17:12:46;14.48;;;13.13;;
15608;SDS011;64278;45.642;13.756;2023-02-02T17:17:41;13.85;;;12.55;;
15608;SDS011;64278;45.642;13.756;2023-02-02T17:20:07;15.07;;;13.70;;
15608;SDS011;64278;45.642;13.756;2023-02-02T17:22:36;14.40;;;13.00;;
15608;SDS011;64278;45.642;13.756;2023-02-02T17:25:37;14.30;;;12.88;;
15608;SDS011;64278;45.642;13.756;2023-02-02T17:28:02;15.38;;;13.82;;
15608;SDS011;64278;45.642;13.756;2023-02-02T17:30:32;14.45;;;13.25;;
15608;SDS011;64278;45.642;13.756;2023-02-02T17:32:57;14.15;;;12.82;;
15608;SDS011;64278;45.642;13.756;2023-02-02T17:35:24;13.18;;;12.02;;
15608;SDS011;64278;45.642;13.756;2023-02-02T17:37:51;13.57;;;12.15;;
15608;SDS011;64278;45.642;13.756;2023-02-02T17:40:19;13.75;;;12.48;;
15608;SDS011;64278;45.642;13.756;2023-02-02T17:42:47;12.50;;;11.38;;
15608;SDS011;64278;45.642;13.756;2023-02-02T17:47:40;12.63;;;11.52;;
15608;SDS011;64278;45.642;13.756;2023-02-02T17:50:06;12.38;;;11.23;;
15608;SDS011;64278;45.642;13.756;2023-02-02T17:52:32;12.85;;;11.75;;
15608;SDS011;64278;45.642;13.756;2023-02-02T17:54:58;12.50;;;11.32;;
15608;SDS011;64278;45.642;13.756;2023-02-02T17:57:23;12.68;;;11.48;;